Time;durP1;ratioP1;P1;durP2;ratioP2;P2;SDS_P1;SDS_P2;PMS_P1;PMS_P2;Temp;Humidity;BMP_temperature;BMP_pressure;BME280_temperature;BME280_humidity;BME280_pressure;Samples;Min_cycle;Max_cycle;Signal;HPM_P1;HPM_P2
2021/12/16 00:01:47;;;;;;;15.02;2.25;;;;;;;22.39;53.43;100858.72;7311074;19;129111;-39
2021/12/16 00:09:24;;;;;;;12.75;1.90;;;;;;;22.39;53.55;100852.63;7311484;19;129070;-40
2021/12/16 00:33:45;;;;;;;15.45;2.25;;;;;;;22.87;52.77;100867.34;7306610;19;129855;-37
2021/12/16 00:36:11;;;;;;;10.23;1.65;;;;;;;22.83;52.62;100868.50;7308684;19;130430;-38
2021/12/16 00:38:40;;;;;;;22.52;3.30;;;;;;;22.84;52.73;100868.38;7310381;19;128863;-40
2021/12/16 00:41:06;;;;;;;12.32;2.10;;;;;;;22.86;52.81;100869.09;7311248;19;129201;-37
2021/12/16 00:43:43;;;;;;;19.85;3.20;;;;;;;22.86;52.23;100876.13;7309738;19;130077;-37
2021/12/16 00:56:30;;;;;;;19.33;2.92;;;;;;;22.85;53.21;100877.09;7307143;19;129116;-36
2021/12/16 00:58:58;;;;;;;13.48;2.33;;;;;;;22.85;52.39;100863.97;7309383;19;129581;-39
2021/12/16 01:01:38;;;;;;;12.75;2.05;;;;;;;22.87;52.59;100877.81;7308917;19;129137;-39
2021/12/16 01:10:03;;;;;;;15.60;2.30;;;;;;;22.86;52.14;100884.00;7309872;19;128832;-38
2021/12/16 01:37:27;;;;;;;20.33;2.85;;;;;;;22.76;52.93;100898.75;7314979;19;129611;-36
2021/12/16 01:48:40;;;;;;;19.23;3.10;;;;;;;22.70;53.45;100894.81;7315260;19;129801;-36
2021/12/16 01:50:54;;;;;;;12.35;2.15;;;;;;;22.73;53.00;100899.00;7315725;19;130239;-37
2021/12/16 01:53:50;;;;;;;11.32;1.83;;;;;;;22.71;53.84;100901.72;7316124;19;129362;-38
2021/12/16 01:56:36;;;;;;;17.60;2.85;;;;;;;22.65;53.74;100890.88;7313625;19;129006;-36
2021/12/16 01:59:01;;;;;;;5.57;1.30;;;;;;;22.75;53.63;100897.94;7311765;19;130848;-38
2021/12/16 02:01:32;;;;;;;14.45;2.35;;;;;;;22.60;52.15;100893.84;7315471;19;130456;-35
2021/12/16 02:04:17;;;;;;;12.77;2.42;;;;;;;22.53;52.75;100892.63;7315237;19;129062;-39
2021/12/16 02:07:10;;;;;;;26.20;3.90;;;;;;;22.41;52.42;100900.53;7315026;19;129902;-38
2021/12/16 02:09:41;;;;;;;15.75;2.35;;;;;;;22.42;54.14;100891.72;7315956;19;129760;-38
2021/12/16 02:12:20;;;;;;;12.25;2.03;;;;;;;22.50;53.84;100899.84;7316417;19;131093;-36
2021/12/16 02:28:53;;;;;;;22.15;3.40;;;;;;;22.72;53.92;100908.66;7315259;19;129462;-39
2021/12/16 02:31:33;;;;;;;10.27;1.48;;;;;;;22.70;53.09;100915.81;7316077;19;130314;-36
2021/12/16 02:36:44;;;;;;;22.30;3.92;;;;;;;22.70;54.14;100909.72;7312414;19;128659;-36
2021/12/16 02:39:21;;;;;;;15.50;2.53;;;;;;;22.70;55.50;100907.09;7315744;19;129755;-38
2021/12/16 02:41:50;;;;;;;12.70;1.95;;;;;;;22.73;53.95;100901.63;7315465;19;129380;-37
2021/12/16 02:44:33;;;;;;;15.50;2.55;;;;;;;22.71;54.39;100903.53;7314004;19;129605;-38
2021/12/16 02:50:00;;;;;;;11.98;1.77;;;;;;;22.62;54.21;100891.94;7313515;19;129592;-38
2021/12/16 02:52:27;;;;;;;16.42;2.60;;;;;;;22.72;53.98;100902.56;7314682;19;129640;-37
2021/12/16 02:54:53;;;;;;;13.98;1.98;;;;;;;22.68;54.11;100899.34;7313431;19;129981;-36
2021/12/16 02:57:19;;;;;;;7.47;1.20;;;;;;;22.67;53.80;100904.69;7314971;19;129176;-38
2021/12/16 02:59:46;;;;;;;7.50;1.40;;;;;;;22.69;54.43;100905.44;7314584;19;129423;-37
2021/12/16 03:02:15;;;;;;;9.68;1.58;;;;;;;22.67;53.55;100902.09;7312401;19;129618;-33
2021/12/16 03:04:43;;;;;;;17.33;2.55;;;;;;;22.60;53.69;100904.31;7311083;19;129410;-33
2021/12/16 03:07:12;;;;;;;15.52;2.53;;;;;;;22.66;54.63;100913.53;7314141;19;129762;-35
2021/12/16 03:10:09;;;;;;;23.40;3.22;;;;;;;22.65;52.99;100901.34;7312263;19;129149;-32
2021/12/16 03:18:03;;;;;;;12.60;1.88;;;;;;;22.69;54.03;100915.91;7313758;19;129619;-36
2021/12/16 03:20:40;;;;;;;17.30;2.72;;;;;;;22.70;53.53;100909.72;7312141;19;129030;-39
2021/12/16 03:23:58;;;;;;;;;;;;;;;22.74;54.30;100911.97;7313358;19;130693;-35
2021/12/16 03:31:43;;;;;;;8.20;1.60;;;;;;;22.68;53.79;100914.22;7312967;19;128863;-32
2021/12/16 03:34:28;;;;;;;10.40;1.92;;;;;;;22.70;54.48;100910.56;7311145;19;129080;-38
2021/12/16 03:37:17;;;;;;;11.70;1.75;;;;;;;22.66;54.79;100916.97;7308321;19;131069;-34
2021/12/16 03:40:07;;;;;;;19.58;2.53;;;;;;;22.64;55.02;100912.81;7311682;19;129037;-35
2021/12/16 03:42:39;;;;;;;26.98;4.10;;;;;;;22.67;54.66;100907.31;7310997;19;129548;-35
2021/12/16 03:48:12;;;;;;;15.20;2.28;;;;;;;22.61;54.84;100915.66;7312176;19;129369;-38
2021/12/16 03:50:38;;;;;;;21.25;3.25;;;;;;;22.63;54.34;100913.72;7310863;19;130141;-33
2021/12/16 03:53:06;;;;;;;9.48;1.88;;;;;;;22.55;53.04;100921.34;7311088;19;128986;-34
2021/12/16 03:55:32;;;;;;;19.98;2.92;;;;;;;22.45;53.52;100925.53;7309881;19;129140;-37
2021/12/16 03:57:57;;;;;;;11.47;1.83;;;;;;;22.54;52.59;100915.28;7310518;19;129979;-37
2021/12/16 04:00:28;;;;;;;3.03;0.90;;;;;;;22.88;51.84;100909.16;7311112;19;152186;-43
2021/12/16 04:02:55;;;;;;;10.35;1.60;;;;;;;23.49;50.45;100923.69;7311106;19;129573;-35
2021/12/16 04:05:22;;;;;;;10.60;1.73;;;;;;;24.09;48.68;100921.50;7309041;19;130112;-38
2021/12/16 04:07:48;;;;;;;6.35;1.20;;;;;;;24.61;47.55;100923.31;7310408;19;129648;-34
2021/12/16 04:10:47;;;;;;;13.52;2.03;;;;;;;24.94;47.07;100924.97;7312386;19;129309;-37
2021/12/16 04:13:15;;;;;;;10.75;1.45;;;;;;;25.46;45.77;100927.47;7312318;19;129174;-34
2021/12/16 04:15:41;;;;;;;28.77;4.13;;;;;;;25.63;44.69;100911.06;7307247;19;129292;-37
2021/12/16 04:18:06;;;;;;;10.27;1.90;;;;;;;25.95;44.26;100919.59;7310648;19;130158;-32
2021/12/16 04:20:33;;;;;;;27.52;4.10;;;;;;;26.01;44.34;100919.09;7308466;19;154396;-37
2021/12/16 04:22:59;;;;;;;5.93;1.20;;;;;;;26.10;43.84;100906.91;7310591;19;130163;-35
2021/12/16 04:25:33;;;;;;;7.03;1.38;;;;;;;26.16;43.58;100922.16;7308733;19;130655;-38
2021/12/16 04:28:03;;;;;;;15.40;2.33;;;;;;;26.20;44.15;100928.81;7310782;19;129675;-33
2021/12/16 04:30:30;;;;;;;24.40;3.85;;;;;;;26.07;43.86;100922.97;7309686;19;130543;-31
2021/12/16 04:32:57;;;;;;;10.85;1.77;;;;;;;26.00;44.27;100927.09;7311534;19;129373;-31
2021/12/16 04:35:22;;;;;;;13.25;2.20;;;;;;;25.83;44.30;100931.22;7307544;19;129339;-34
2021/12/16 04:37:49;;;;;;;11.33;1.60;;;;;;;25.60;44.85;100929.78;7310898;19;130474;-34
2021/12/16 04:40:16;;;;;;;15.45;2.33;;;;;;;25.41;45.41;100937.56;7310689;19;128961;-35
2021/12/16 04:42:44;;;;;;;15.82;2.20;;;;;;;25.17;45.94;100937.03;7311284;19;128954;-34
2021/12/16 04:45:11;;;;;;;19.20;3.17;;;;;;;24.97;46.73;100933.44;7307678;19;129478;-40
2021/12/16 04:47:38;;;;;;;18.10;2.85;;;;;;;24.78;47.24;100943.81;7308857;19;132401;-39
2021/12/16 04:50:05;;;;;;;;;;;;;;;24.54;47.37;100934.47;7310938;19;129258;-32
2021/12/16 04:52:31;;;;;;;23.55;3.20;;;;;;;24.43;48.03;100946.69;7309483;19;129594;-33
2021/12/16 04:54:56;;;;;;;15.38;2.60;;;;;;;24.31;48.08;100942.44;7308231;19;129678;-34
2021/12/16 04:57:22;;;;;;;18.13;2.47;;;;;;;24.16;49.27;100946.28;7308045;19;158661;-37
2021/12/16 04:59:47;;;;;;;19.35;3.10;;;;;;;23.99;49.38;100946.00;7309953;19;129298;-34
2021/12/16 05:02:17;;;;;;;9.73;1.60;;;;;;;23.79;49.57;100928.31;7309009;19;153987;-31
2021/12/16 05:04:43;;;;;;;17.88;2.90;;;;;;;23.75;50.04;100932.97;7307301;19;131020;-33
2021/12/16 05:07:10;;;;;;;13.45;2.25;;;;;;;23.65;49.96;100934.66;7310200;19;129982;-34
2021/12/16 05:10:02;;;;;;;;;;;;;;;23.46;50.19;100916.06;7309254;19;129728;-33
2021/12/16 05:12:23;;;;;;;10.38;2.00;;;;;;;23.44;51.12;100933.69;7313472;19;129608;-38
2021/12/16 05:14:50;;;;;;;23.38;3.38;;;;;;;23.37;50.83;100939.56;7312682;19;131515;-35
2021/12/16 05:17:26;;;;;;;18.25;2.90;;;;;;;23.27;51.53;100936.78;7310890;19;129583;-33
2021/12/16 05:19:53;;;;;;;3.17;0.60;;;;;;;23.21;51.60;100927.59;7313642;19;129298;-38
2021/12/16 05:25:10;;;;;;;17.90;2.65;;;;;;;23.11;52.25;100931.03;7312619;19;130230;-35
2021/12/16 05:27:36;;;;;;;18.83;2.83;;;;;;;23.00;51.50;100923.13;7313293;19;131062;-34
2021/12/16 05:30:02;;;;;;;18.33;2.53;;;;;;;22.97;52.25;100936.50;7311163;19;154425;-32
2021/12/16 05:32:27;;;;;;;19.95;2.88;;;;;;;22.89;52.42;100936.25;7313904;19;129019;-34
2021/12/16 05:34:52;;;;;;;16.15;2.50;;;;;;;22.89;52.50;100938.88;7310177;19;129562;-34
2021/12/16 05:37:18;;;;;;;20.55;3.00;;;;;;;22.86;52.97;100945.16;7308865;19;159832;-35
2021/12/16 05:39:44;;;;;;;12.77;1.90;;;;;;;22.82;52.97;100940.25;7314213;19;129368;-32
2021/12/16 05:42:09;;;;;;;10.00;1.52;;;;;;;22.81;52.76;100939.41;7312619;19;129203;-37
2021/12/16 05:44:34;;;;;;;31.58;4.35;;;;;;;22.81;52.98;100946.44;7310374;19;129410;-36
2021/12/16 05:47:00;;;;;;;10.93;1.90;;;;;;;22.77;53.58;100937.16;7310125;19;129489;-32
2021/12/16 05:49:25;;;;;;;22.67;3.15;;;;;;;22.85;53.38;100942.66;7311512;19;129505;-39
2021/12/16 05:51:51;;;;;;;15.15;2.33;;;;;;;22.84;52.88;100944.44;7311697;19;129301;-37
2021/12/16 05:54:18;;;;;;;13.30;1.97;;;;;;;22.84;53.31;100947.06;7308907;19;130451;-34
2021/12/16 05:56:45;;;;;;;29.58;3.72;;;;;;;22.75;54.15;100933.81;7309575;19;129379;-34
2021/12/16 05:59:13;;;;;;;10.57;1.90;;;;;;;22.85;53.19;100948.75;7310934;19;129367;-39
2021/12/16 06:01:41;;;;;;;23.73;3.47;;;;;;;22.86;53.67;100946.94;7312021;19;129901;-36
2021/12/16 06:04:07;;;;;;;24.38;3.63;;;;;;;22.81;53.54;100933.31;7310810;19;131145;-37
2021/12/16 06:06:32;;;;;;;21.27;3.42;;;;;;;22.93;53.72;100956.03;7309439;19;129420;-36
2021/12/16 06:08:58;;;;;;;19.23;2.95;;;;;;;22.90;54.18;100937.91;7309264;19;130138;-38
2021/12/16 06:11:28;;;;;;;18.58;2.65;;;;;;;23.07;54.42;100959.28;7309386;19;130216;-43
2021/12/16 06:14:04;;;;;;;23.77;3.83;;;;;;;23.04;53.88;100953.41;7307821;19;130944;-38
2021/12/16 06:27:53;;;;;;;11.88;1.85;;;;;;;22.70;53.13;100988.38;7311397;19;129434;-36
2021/12/16 06:30:32;;;;;;;12.80;2.05;;;;;;;22.61;53.43;100973.31;7309619;19;130174;-38
2021/12/16 06:32:58;;;;;;;22.30;3.22;;;;;;;22.65;53.34;100995.72;7313468;19;129294;-38
2021/12/16 06:35:24;;;;;;;17.23;3.30;;;;;;;22.65;52.96;100985.25;7307750;19;158298;-37
2021/12/16 06:37:50;;;;;;;18.35;2.40;;;;;;;22.63;53.31;100992.38;7311777;19;130029;-36
2021/12/16 06:40:17;;;;;;;21.85;3.00;;;;;;;22.74;52.69;100995.88;7310600;19;130373;-38
2021/12/16 06:42:43;;;;;;;19.95;2.55;;;;;;;22.73;52.97;100972.41;7313734;19;129143;-39
2021/12/16 06:45:16;;;;;;;22.63;3.50;;;;;;;22.90;52.12;100985.09;7308854;19;129867;-40
2021/12/16 06:47:49;;;;;;;32.08;4.18;;;;;;;22.96;52.13;100979.38;7309714;19;129587;-37
2021/12/16 06:50:27;;;;;;;16.75;2.72;;;;;;;23.08;52.10;100988.97;7305188;19;129233;-39
2021/12/16 06:52:57;;;;;;;22.13;3.17;;;;;;;23.19;51.85;100991.59;7304700;19;129426;-40
2021/12/16 06:55:36;;;;;;;30.20;4.65;;;;;;;23.19;50.56;100991.59;7252963;19;131371;-37
2021/12/16 06:58:13;;;;;;;34.40;5.60;;;;;;;23.62;47.19;100987.41;7303199;19;130397;-39
2021/12/16 07:00:44;;;;;;;22.25;3.67;;;;;;;24.02;45.93;100993.88;7305518;19;131908;-37
2021/12/16 07:03:18;;;;;;;32.80;4.55;;;;;;;24.42;46.26;100989.72;7309859;19;129639;-36
2021/12/16 07:05:45;;;;;;;30.92;4.30;;;;;;;24.87;46.05;100992.22;7307157;19;130127;-40
2021/12/16 07:08:12;;;;;;;;;;;;;;;25.11;45.39;100990.16;7310690;19;129597;-37
2021/12/16 07:10:38;;;;;;;34.50;4.37;;;;;;;25.31;45.56;100991.94;7308585;19;129215;-35
2021/12/16 07:13:07;;;;;;;29.43;4.53;;;;;;;25.47;45.17;101000.25;7309949;19;129264;-39
2021/12/16 07:15:35;;;;;;;11.85;2.42;;;;;;;25.67;44.80;101002.84;7307076;19;129746;-35
2021/12/16 07:18:01;;;;;;;32.08;4.55;;;;;;;25.80;44.68;100999.97;7308627;19;129422;-38
2021/12/16 07:20:33;;;;;;;18.00;2.78;;;;;;;25.98;44.70;101003.66;7308979;19;129240;-38
2021/12/16 07:23:00;;;;;;;25.05;3.58;;;;;;;26.09;44.57;101006.22;7309993;19;129576;-34
2021/12/16 07:25:26;;;;;;;;;;;;;;;26.10;44.40;101005.25;7305757;19;129532;-37
2021/12/16 07:27:51;;;;;;;15.13;2.25;;;;;;;26.23;44.36;101012.94;7309513;19;130901;-34
2021/12/16 07:30:20;;;;;;;27.25;3.80;;;;;;;26.28;44.47;101016.81;7305504;19;128996;-36
2021/12/16 07:32:46;;;;;;;33.47;4.23;;;;;;;26.34;44.43;101016.28;7306959;19;129191;-36
2021/12/16 07:35:17;;;;;;;21.30;3.13;;;;;;;26.37;44.26;101020.44;7306505;19;129564;-31
2021/12/16 07:37:43;;;;;;;39.25;5.78;;;;;;;26.47;44.38;101013.38;7303007;19;129791;-36
2021/12/16 07:40:10;;;;;;;38.23;4.97;;;;;;;26.57;44.06;101011.59;7309070;19;128932;-37
2021/12/16 07:42:58;;;;;;;14.35;2.53;;;;;;;26.62;44.18;101026.03;7310111;19;129434;-37
2021/12/16 07:45:24;;;;;;;;;;;;;;;26.59;44.73;101015.75;7307294;19;130480;-37
2021/12/16 07:47:49;;;;;;;19.50;2.87;;;;;;;26.63;44.42;101022.41;7309759;19;129673;-38
2021/12/16 07:50:16;;;;;;;19.52;3.03;;;;;;;26.62;44.60;101019.94;7310517;19;133925;-38
2021/12/16 07:52:41;;;;;;;20.58;3.13;;;;;;;26.61;44.22;101024.34;7310416;19;129205;-37
2021/12/16 07:55:09;;;;;;;32.03;4.60;;;;;;;26.64;44.75;101026.72;7310202;19;130138;-38
2021/12/16 07:57:35;;;;;;;16.92;2.75;;;;;;;26.72;44.38;101026.91;7307366;19;130493;-39
2021/12/16 08:00:00;;;;;;;36.77;4.60;;;;;;;26.78;43.76;101021.06;7308769;19;129094;-36
2021/12/16 08:02:25;;;;;;;17.17;2.47;;;;;;;26.79;44.25;101028.00;7309694;19;130418;-37
2021/12/16 08:04:52;;;;;;;21.07;3.03;;;;;;;26.80;44.74;101021.78;7306919;19;136845;-33
2021/12/16 08:07:18;;;;;;;15.32;2.50;;;;;;;26.79;44.47;101022.72;7308667;19;130784;-36
2021/12/16 08:09:44;;;;;;;15.20;2.33;;;;;;;26.75;44.12;101016.09;7308244;19;129045;-32
2021/12/16 08:12:13;;;;;;;40.97;5.25;;;;;;;26.82;44.47;101033.00;7307541;19;129304;-36
2021/12/16 08:14:40;;;;;;;26.05;3.80;;;;;;;26.77;44.33;101039.69;7305570;19;130227;-34
2021/12/16 08:17:06;;;;;;;21.70;2.97;;;;;;;26.79;44.83;101040.41;7305017;19;131014;-40
2021/12/16 08:19:32;;;;;;;30.85;4.25;;;;;;;26.84;44.60;101038.97;7307068;19;131047;-33
2021/12/16 08:21:57;;;;;;;24.73;2.97;;;;;;;26.81;44.45;101041.06;7308574;19;129837;-40
2021/12/16 08:24:22;;;;;;;20.57;3.07;;;;;;;26.85;44.69;101053.88;7305653;19;130516;-32
2021/12/16 08:26:50;;;;;;;25.88;3.22;;;;;;;26.78;44.25;101049.25;7307601;19;130556;-38
2021/12/16 08:29:17;;;;;;;17.45;2.35;;;;;;;26.66;44.82;101059.13;7308667;19;129467;-37
2021/12/16 08:31:42;;;;;;;18.03;2.60;;;;;;;26.44;45.04;101038.25;7307947;19;129848;-38
2021/12/16 08:34:07;;;;;;;33.45;4.63;;;;;;;26.45;45.85;101055.72;7305810;19;129029;-36
2021/12/16 08:36:34;;;;;;;15.47;2.47;;;;;;;26.45;45.33;101060.16;7304519;19;130782;-35
2021/12/16 08:39:02;;;;;;;34.15;4.40;;;;;;;26.44;46.05;101056.69;7309243;19;129229;-38
2021/12/16 08:41:32;;;;;;;17.08;2.88;;;;;;;26.48;45.92;101052.81;7307912;19;129305;-38
2021/12/16 08:43:58;;;;;;;36.25;5.80;;;;;;;26.52;45.53;101051.56;7301891;19;129781;-37
2021/12/16 08:46:28;;;;;;;41.77;5.23;;;;;;;26.48;45.14;101044.91;7303928;19;131703;-38
2021/12/16 08:48:54;;;;;;;26.60;4.28;;;;;;;26.53;45.35;101047.97;7305928;19;129094;-38
2021/12/16 08:51:22;;;;;;;21.10;2.90;;;;;;;26.62;45.48;101062.97;7305372;19;130514;-35
2021/12/16 08:53:49;;;;;;;38.55;6.38;;;;;;;26.68;42.65;101072.16;7306571;19;129414;-37
2021/12/16 08:56:14;;;;;;;;;;;;;;;26.58;39.91;101071.28;7304430;19;129502;-39
2021/12/16 08:58:40;;;;;;;30.48;4.85;;;;;;;26.54;40.15;101072.53;7307010;19;129130;-38
2021/12/16 09:01:13;;;;;;;27.93;4.63;;;;;;;26.52;42.02;101056.84;7308141;19;129616;-35
2021/12/16 09:03:39;;;;;;;21.17;4.00;;;;;;;26.62;42.74;101062.97;7306371;19;130205;-37
2021/12/16 09:06:04;;;;;;;41.40;6.20;;;;;;;26.65;43.06;101051.31;7302894;19;129646;-37
2021/12/16 09:08:30;;;;;;;29.27;4.47;;;;;;;26.72;43.24;101063.88;7307416;19;129558;-35
2021/12/16 09:10:56;;;;;;;19.97;3.17;;;;;;;26.75;42.96;101054.81;7303994;19;130086;-37
2021/12/16 09:13:22;;;;;;;29.48;4.28;;;;;;;26.76;43.27;101059.97;7303732;19;131108;-38
2021/12/16 09:15:54;;;;;;;24.10;3.83;;;;;;;26.83;42.79;101061.09;7294788;19;131670;-35
2021/12/16 09:18:27;;;;;;;31.70;4.30;;;;;;;26.85;42.92;101064.41;7305255;19;129801;-34
2021/12/16 09:20:54;;;;;;;21.73;3.35;;;;;;;26.90;43.64;101062.19;7306458;19;129337;-36
2021/12/16 09:23:20;;;;;;;11.25;2.08;;;;;;;26.92;43.83;101064.69;7305846;19;133838;-38
2021/12/16 09:25:47;;;;;;;23.07;3.50;;;;;;;26.93;43.70;101083.03;7300676;19;130530;-39
2021/12/16 09:28:13;;;;;;;;;;;;;;;27.01;43.53;101089.44;7306286;19;129434;-38
2021/12/16 09:30:38;;;;;;;20.08;3.33;;;;;;;27.05;43.83;101096.09;7304298;19;131378;-35
2021/12/16 09:33:07;;;;;;;33.10;4.50;;;;;;;27.09;43.68;101097.50;7305490;19;129568;-38
2021/12/16 09:35:37;;;;;;;20.98;3.20;;;;;;;27.11;43.59;101092.88;7302903;19;129639;-34
2021/12/16 09:38:05;;;;;;;22.63;3.50;;;;;;;27.09;43.65;101102.78;7302686;19;129092;-34
2021/12/16 09:40:36;;;;;;;24.90;3.90;;;;;;;27.13;43.38;101093.59;7305067;19;129074;-39
2021/12/16 09:43:02;;;;;;;25.42;3.90;;;;;;;26.96;44.20;101096.94;7306318;19;130275;-32
2021/12/16 09:45:27;;;;;;;20.25;3.08;;;;;;;26.96;44.74;101102.22;7302537;19;130026;-38
2021/12/16 09:47:53;;;;;;;28.73;3.90;;;;;;;27.14;43.58;101097.91;7303779;19;154931;-35
2021/12/16 09:50:27;;;;;;;23.80;3.23;;;;;;;27.24;43.73;101106.66;7305981;19;128872;-37
2021/12/16 09:52:52;;;;;;;34.80;4.13;;;;;;;27.22;43.52;101101.50;7304051;19;129490;-38
2021/12/16 09:55:18;;;;;;;24.03;3.43;;;;;;;27.31;42.94;101105.16;7305866;19;129290;-35
2021/12/16 09:57:44;;;;;;;14.57;2.50;;;;;;;27.29;42.92;101094.72;7308541;19;129341;-34
2021/12/16 10:00:13;;;;;;;27.57;3.80;;;;;;;27.28;43.33;101097.50;7310313;19;129684;-37
2021/12/16 10:02:38;;;;;;;21.02;3.38;;;;;;;27.25;43.72;101079.28;7310416;19;130321;-31
2021/12/16 10:05:07;;;;;;;21.53;3.10;;;;;;;27.28;42.97;101092.22;7308931;19;129751;-32
2021/12/16 10:07:34;;;;;;;34.22;4.78;;;;;;;27.27;43.40;101087.91;7311155;19;129339;-40
2021/12/16 10:10:08;;;;;;;22.90;3.72;;;;;;;27.28;43.44;101089.59;7310774;19;129415;-36
2021/12/16 10:12:38;;;;;;;23.70;3.40;;;;;;;27.28;43.09;101089.59;7308978;19;131328;-33
2021/12/16 10:17:54;;;;;;;21.75;3.05;;;;;;;27.30;43.15;101079.72;7308782;19;130040;-35
2021/12/16 10:20:21;;;;;;;;;;;;;;;27.15;43.67;101073.16;7311296;19;129427;-38
2021/12/16 10:22:47;;;;;;;47.60;9.17;;;;;;;26.98;39.29;101074.69;7309866;19;129670;-38
2021/12/16 10:25:22;;;;;;;21.10;8.27;;;;;;;26.72;36.73;101074.41;7309858;19;130383;-35
2021/12/16 10:28:14;;;;;;;24.67;6.50;;;;;;;26.55;38.54;101072.41;7311219;19;129466;-34
2021/12/16 10:31:12;;;;;;;18.00;5.50;;;;;;;26.46;39.67;101083.75;7309931;19;129270;-36
2021/12/16 10:33:40;;;;;;;22.42;4.68;;;;;;;26.73;40.76;101084.00;7309577;19;130731;-35
2021/12/16 10:36:08;;;;;;;40.40;7.60;;;;;;;26.88;41.01;101084.41;7305658;19;159543;-38
2021/12/16 10:38:53;;;;;;;13.32;4.13;;;;;;;26.96;41.38;101075.81;7311264;19;130741;-39
2021/12/16 10:41:27;;;;;;;35.13;7.35;;;;;;;26.87;38.93;101077.47;7308160;19;130191;-35
2021/12/16 10:44:04;;;;;;;34.72;6.95;;;;;;;26.91;37.95;101074.41;7307385;19;129225;-35
2021/12/16 10:46:32;;;;;;;35.87;5.87;;;;;;;26.93;37.88;101075.13;7308153;19;129251;-38
2021/12/16 10:49:01;;;;;;;21.80;4.63;;;;;;;26.98;38.24;101079.13;7309739;19;129402;-35
2021/12/16 10:51:32;;;;;;;29.80;5.35;;;;;;;27.04;37.96;101078.59;7308494;19;130030;-36
2021/12/16 10:53:57;;;;;;;32.90;6.18;;;;;;;26.98;38.33;101089.69;7308899;19;130274;-35
2021/12/16 10:56:28;;;;;;;26.07;5.47;;;;;;;27.05;38.40;101080.25;7305494;19;149619;-38
2021/12/16 10:58:59;;;;;;;35.28;5.35;;;;;;;27.05;37.76;101069.69;7310245;19;129241;-31
2021/12/16 11:01:37;;;;;;;37.55;6.40;;;;;;;27.02;37.97;101081.38;7307989;19;130040;-38
2021/12/16 11:04:08;;;;;;;21.02;3.72;;;;;;;27.00;38.34;101093.03;7307944;19;129515;-36
2021/12/16 11:06:40;;;;;;;21.05;4.07;;;;;;;26.93;38.06;101093.59;7303014;19;130514;-34
2021/12/16 11:09:44;;;;;;;44.35;6.93;;;;;;;26.90;38.97;101085.13;7308491;19;129209;-37
2021/12/16 11:12:16;;;;;;;39.50;6.00;;;;;;;26.93;38.17;101088.31;7303213;19;140163;-37
2021/12/16 11:14:56;;;;;;;46.38;8.65;;;;;;;26.93;39.23;101104.16;7289735;19;130319;-37
2021/12/16 11:17:26;;;;;;;26.90;5.13;;;;;;;27.05;38.93;101098.72;7299534;19;129373;-37
2021/12/16 11:19:54;;;;;;;31.00;4.40;;;;;;;26.99;39.20;101081.63;7309157;19;129855;-40
2021/12/16 11:22:28;;;;;;;29.80;5.13;;;;;;;27.04;40.07;101073.31;7308400;19;130097;-36
2021/12/16 11:24:54;;;;;;;14.27;3.25;;;;;;;27.20;39.63;101105.25;7308490;19;130208;-36
2021/12/16 11:27:32;;;;;;;29.70;4.78;;;;;;;27.17;40.08;101079.16;7309328;19;131274;-38
2021/12/16 11:30:16;;;;;;;13.85;3.17;;;;;;;27.26;40.26;101100.25;7309165;19;129148;-35
2021/12/16 11:32:45;;;;;;;15.95;3.03;;;;;;;27.16;40.06;101090.66;7310624;19;129105;-35
2021/12/16 11:35:26;;;;;;;25.65;4.15;;;;;;;27.13;40.24;101094.44;7306316;19;129535;-38
2021/12/16 11:37:52;;;;;;;30.50;4.63;;;;;;;27.27;40.16;101095.81;7304955;19;129907;-35
2021/12/16 11:40:19;;;;;;;16.67;3.13;;;;;;;27.34;40.14;101096.94;7310244;19;128942;-35
2021/12/16 11:43:03;;;;;;;33.03;5.55;;;;;;;27.22;40.78;101092.75;7306836;19;130231;-35
2021/12/16 11:45:31;;;;;;;21.05;3.72;;;;;;;27.07;41.09;101096.78;7305574;19;133418;-37
2021/12/16 11:47:57;;;;;;;36.90;6.25;;;;;;;26.98;41.38;101102.88;7308076;19;130165;-35
2021/12/16 11:50:36;;;;;;;14.67;3.10;;;;;;;26.89;41.50;101110.66;7308337;19;153940;-34
2021/12/16 11:53:02;;;;;;;32.65;4.90;;;;;;;26.93;41.24;101113.88;7308770;19;129487;-38
2021/12/16 11:55:28;;;;;;;34.17;5.35;;;;;;;26.94;41.31;101111.09;7306550;19;130234;-35
2021/12/16 11:58:00;;;;;;;17.73;3.80;;;;;;;26.93;41.69;101122.63;7306475;19;129498;-32
2021/12/16 12:00:31;;;;;;;38.10;5.97;;;;;;;27.05;41.22;101122.50;7305745;19;129885;-35
2021/12/16 12:03:07;;;;;;;23.25;4.05;;;;;;;27.10;40.55;101125.56;7309344;19;129408;-34
2021/12/16 12:05:39;;;;;;;24.35;4.65;;;;;;;27.07;41.42;101131.13;7305304;19;130014;-38
2021/12/16 12:08:26;;;;;;;30.58;5.05;;;;;;;27.15;41.28;101108.34;7303157;19;129713;-35
2021/12/16 12:10:51;;;;;;;22.60;4.32;;;;;;;27.15;40.83;101070.53;7305586;19;129524;-31
2021/12/16 12:13:27;;;;;;;18.00;3.50;;;;;;;27.14;41.06;101084.72;7308789;19;129848;-39
2021/12/16 12:16:22;;;;;;;18.42;3.72;;;;;;;27.21;40.87;101097.19;7305640;19;130433;-37
2021/12/16 12:19:09;;;;;;;17.85;3.17;;;;;;;27.21;40.59;101106.91;7306453;19;129204;-33
2021/12/16 12:21:45;;;;;;;38.78;5.78;;;;;;;27.30;40.83;101108.78;7308564;19;129693;-37
2021/12/16 12:24:16;;;;;;;32.53;4.88;;;;;;;27.28;41.00;101102.78;7307715;19;129877;-37
2021/12/16 12:26:52;;;;;;;16.58;3.28;;;;;;;27.25;40.60;101093.31;7306128;19;129533;-35
2021/12/16 12:29:30;;;;;;;19.20;3.10;;;;;;;27.24;40.91;101093.47;7306648;19;129340;-38
2021/12/16 12:32:04;;;;;;;30.08;4.82;;;;;;;27.33;41.00;101097.91;7308728;19;129840;-40
2021/12/16 12:34:30;;;;;;;29.17;4.38;;;;;;;27.40;40.74;101109.59;7306574;19;129757;-37
2021/12/16 12:36:59;;;;;;;11.98;2.78;;;;;;;27.34;40.78;101110.97;7306464;19;131134;-32
2021/12/16 12:39:28;;;;;;;32.65;4.93;;;;;;;27.39;41.14;101103.47;7305971;19;130085;-37
2021/12/16 12:41:54;;;;;;;18.15;3.38;;;;;;;27.43;40.92;101107.50;7307349;19;130820;-39
2021/12/16 12:44:19;;;;;;;19.20;3.40;;;;;;;27.42;40.57;101105.81;7307159;19;129131;-33
2021/12/16 12:46:46;;;;;;;30.23;4.27;;;;;;;27.49;40.38;101119.31;7305896;19;130198;-36
2021/12/16 12:49:15;;;;;;;16.50;3.15;;;;;;;27.53;40.62;101112.78;7303347;19;129455;-34
2021/12/16 12:51:47;;;;;;;23.58;3.95;;;;;;;27.49;40.64;101116.66;7307765;19;129622;-36
2021/12/16 12:54:19;;;;;;;26.33;3.95;;;;;;;27.50;40.38;101108.59;7307160;19;129699;-39
2021/12/16 12:56:46;;;;;;;23.20;4.35;;;;;;;27.54;40.75;101120.56;7305383;19;130180;-33
2021/12/16 12:59:15;;;;;;;25.85;3.80;;;;;;;27.57;41.03;101117.63;7306556;19;130438;-34
2021/12/16 13:01:47;;;;;;;40.35;5.63;;;;;;;27.61;40.38;101112.91;7305594;19;129056;-34
2021/12/16 13:04:18;;;;;;;19.63;3.30;;;;;;;27.62;40.27;101118.03;7306922;19;129389;-37
2021/12/16 13:07:04;;;;;;;18.65;3.35;;;;;;;27.36;41.10;101127.53;7305694;19;129615;-32
2021/12/16 13:09:34;;;;;;;32.28;4.85;;;;;;;27.18;41.66;101112.50;7305311;19;129611;-32
2021/12/16 13:12:03;;;;;;;22.35;3.58;;;;;;;27.21;41.31;101128.03;7307751;19;128898;-37
2021/12/16 13:14:44;;;;;;;25.58;4.75;;;;;;;27.18;41.75;101125.69;7302993;19;129290;-37
2021/12/16 13:26:02;;;;;;;25.05;3.80;;;;;;;27.29;41.65;101136.16;7305153;19;128880;-34
2021/12/16 13:28:38;;;;;;;27.50;4.45;;;;;;;27.22;41.34;101127.09;7302041;19;130194;-31
2021/12/16 13:31:24;;;;;;;23.38;3.78;;;;;;;27.35;41.08;101135.59;7308833;19;131077;-36
2021/12/16 13:33:58;;;;;;;44.33;7.03;;;;;;;27.29;41.30;101125.59;7311472;19;129663;-38
2021/12/16 13:36:41;;;;;;;30.20;4.70;;;;;;;27.40;40.64;101141.28;7307142;19;129672;-35
2021/12/16 13:39:14;;;;;;;34.88;5.13;;;;;;;27.48;40.41;101136.16;7312415;19;130162;-37
2021/12/16 13:41:55;;;;;;;22.15;3.63;;;;;;;27.53;40.58;101128.63;7311841;19;131280;-33
2021/12/16 13:44:37;;;;;;;14.93;2.70;;;;;;;27.55;40.85;101126.69;7310112;19;129762;-37